Terminal Aerodrome Forecast
Issued by NWS Cleveland, OH

Home | Current Version | Previous Version | Graphics & Text | Print | Product List | Glossary On
Versions: 1 2 3 4 5 6 7 8 9 10 11 12 13 14 15 16 17 18 19
000
FTUS41 KCLE 291729
TAFCAK
TAF
KCAK 291729Z 2918/3018 29006KT 2SM BR OVC005
     FM292000 32008KT 5SM BR OVC008
     FM292300 36008KT P6SM BKN025
     FM300400 06004KT P6SM SCT025
     FM301400 09006KT P6SM OVC100=

USA.gov is the U.S. government's official web portal to all federal, state and local government web resources and services.